Time;durP1;ratioP1;P1;durP2;ratioP2;P2;SDS_P1;SDS_P2;PMS_P1;PMS_P2;Temp;Humidity;BMP_temperature;BMP_pressure;BME280_temperature;BME280_humidity;BME280_pressure;Samples;Min_cycle;Max_cycle;Signal;HPM_P1;HPM_P2
2021/05/16 00:01:38;;;;;;;1.42;0.50;;;;;;;8.12;85.87;94451.53;4978350;28;20043;-70
2021/05/16 00:04:03;;;;;;;0.68;0.50;;;;;;;8.21;85.68;94452.34;4981791;28;20448;-70
2021/05/16 00:06:29;;;;;;;1.13;0.52;;;;;;;7.87;88.54;94479.44;4992277;28;20079;-70
2021/05/16 00:08:54;;;;;;;0.70;0.60;;;;;;;7.90;87.48;94481.47;4994163;28;20421;-70
2021/05/16 00:11:20;;;;;;;2.28;0.73;;;;;;;8.18;86.27;94478.66;4972700;28;20042;-71
2021/05/16 00:13:45;;;;;;;1.67;0.70;;;;;;;7.86;87.44;94475.22;4972211;28;20035;-70
2021/05/16 00:16:11;;;;;;;1.90;0.50;;;;;;;8.00;86.66;94470.63;4982774;28;20452;-70
2021/05/16 00:18:36;;;;;;;0.80;0.60;;;;;;;8.03;87.57;94483.25;4992013;28;20046;-71
2021/05/16 00:21:02;;;;;;;1.00;0.50;;;;;;;8.10;86.67;94474.91;4990093;28;20038;-70
2021/05/16 00:23:27;;;;;;;1.30;0.70;;;;;;;8.22;85.22;94466.38;4973716;28;20030;-70
2021/05/16 00:25:53;;;;;;;2.00;0.52;;;;;;;8.22;85.46;94475.09;4987988;28;20050;-71
2021/05/16 00:28:18;;;;;;;0.95;0.50;;;;;;;8.33;85.21;94483.56;4981128;28;20121;-68
2021/05/16 00:30:44;;;;;;;1.48;0.60;;;;;;;8.22;85.18;94477.75;4978457;28;20038;-68
2021/05/16 00:33:10;;;;;;;2.80;0.60;;;;;;;8.26;85.15;94470.00;4991626;28;20031;-69
2021/05/16 00:35:35;;;;;;;0.52;0.52;;;;;;;8.30;85.06;94495.56;4992350;28;20026;-68
2021/05/16 00:38:03;;;;;;;0.98;0.60;;;;;;;8.27;85.10;94479.50;4973873;28;20050;-68
2021/05/16 00:40:30;;;;;;;0.30;0.30;;;;;;;7.93;86.43;94488.03;4972543;28;20050;-68
2021/05/16 00:42:56;;;;;;;1.08;0.50;;;;;;;8.15;86.00;94490.66;4970458;28;20491;-69
2021/05/16 00:45:24;;;;;;;0.40;0.40;;;;;;;7.96;85.97;94476.84;4975528;28;20049;-71
2021/05/16 00:47:53;;;;;;;1.20;0.57;;;;;;;7.96;86.15;94488.22;4992346;28;20104;-70
2021/05/16 00:50:22;;;;;;;1.23;0.45;;;;;;;7.93;86.00;94485.38;4970041;28;20039;-70
2021/05/16 00:52:47;;;;;;;1.48;0.40;;;;;;;7.72;86.63;94469.22;4986523;28;20056;-70
2021/05/16 00:55:14;;;;;;;0.85;0.70;;;;;;;7.71;87.43;94484.31;4991550;28;20046;-71
2021/05/16 00:57:40;;;;;;;1.05;0.50;;;;;;;7.62;87.27;94482.69;4989875;28;20046;-67
2021/05/16 01:00:09;;;;;;;1.50;0.50;;;;;;;7.69;86.07;94486.50;4991206;28;20046;-71
2021/05/16 01:02:34;;;;;;;0.90;0.50;;;;;;;7.56;86.20;94471.44;4992801;28;20155;-69
2021/05/16 01:05:00;;;;;;;1.55;0.40;;;;;;;7.84;85.65;94479.28;4974815;28;20070;-70
2021/05/16 01:07:26;;;;;;;1.38;0.50;;;;;;;7.76;85.75;94480.75;4983482;28;20114;-70
2021/05/16 01:09:51;;;;;;;1.10;0.40;;;;;;;7.56;86.59;94474.09;4983674;28;20129;-70
2021/05/16 01:12:17;;;;;;;1.55;0.70;;;;;;;7.76;86.70;94484.19;4973824;28;20397;-69
2021/05/16 01:14:45;;;;;;;2.55;0.82;;;;;;;7.84;85.38;94473.97;4993108;28;20034;-70
2021/05/16 01:17:11;;;;;;;0.73;0.57;;;;;;;7.77;85.23;94482.31;4991002;28;20052;-70
2021/05/16 01:19:37;;;;;;;2.17;0.63;;;;;;;7.85;84.92;94467.59;4990997;28;20076;-71
2021/05/16 01:22:04;;;;;;;2.95;0.50;;;;;;;7.60;86.82;94467.13;4990845;28;20564;-70
2021/05/16 01:24:31;;;;;;;2.22;0.60;;;;;;;7.86;85.09;94480.53;4990628;28;20488;-69
2021/05/16 01:26:59;;;;;;;2.92;0.52;;;;;;;7.88;85.24;94477.56;4992905;28;20031;-70
2021/05/16 01:29:25;;;;;;;1.40;0.47;;;;;;;8.01;84.07;94480.13;4970760;28;20050;-70
2021/05/16 01:31:50;;;;;;;0.88;0.40;;;;;;;7.53;85.27;94477.34;4986387;28;20043;-69
2021/05/16 01:34:16;;;;;;;1.83;0.45;;;;;;;7.85;84.40;94478.19;4979732;28;20038;-70
2021/05/16 01:36:42;;;;;;;1.25;0.50;;;;;;;7.95;83.73;94478.72;4971466;28;20043;-69
2021/05/16 01:39:12;;;;;;;4.05;0.73;;;;;;;7.87;83.34;94465.41;4972777;28;20035;-69
2021/05/16 01:41:38;;;;;;;1.90;0.52;;;;;;;7.82;83.41;94479.56;4992529;28;20413;-70
2021/05/16 01:44:07;;;;;;;1.20;0.52;;;;;;;7.93;83.30;94466.84;4973319;28;20515;-70
2021/05/16 01:46:32;;;;;;;1.48;0.50;;;;;;;7.55;83.29;94457.44;4971266;28;20057;-70
2021/05/16 01:48:58;;;;;;;1.33;0.50;;;;;;;7.53;84.33;94470.19;4979268;28;20064;-70
2021/05/16 01:51:24;;;;;;;0.85;0.52;;;;;;;7.55;84.35;94460.06;4986716;28;20046;-70
2021/05/16 01:53:49;;;;;;;1.92;0.50;;;;;;;7.47;84.97;94478.53;4972387;28;20030;-70
2021/05/16 01:56:26;;;;;;;1.48;0.50;;;;;;;7.47;84.30;94470.59;4970789;28;20050;-71
2021/05/16 01:58:54;;;;;;;2.10;0.70;;;;;;;7.77;83.22;94477.03;4986528;28;20373;-72
2021/05/16 02:01:19;;;;;;;2.05;1.20;;;;;;;7.44;83.97;94474.63;4979004;28;20058;-70
2021/05/16 02:03:46;;;;;;;3.22;0.70;;;;;;;7.46;84.47;94447.88;4968941;28;20601;-69
2021/05/16 02:06:13;;;;;;;1.35;0.50;;;;;;;7.63;83.63;94471.81;4970545;28;20053;-70
2021/05/16 02:08:40;;;;;;;2.35;0.60;;;;;;;7.54;82.66;94439.22;4972680;28;20014;-70
2021/05/16 02:11:06;;;;;;;2.97;0.63;;;;;;;7.55;83.22;94444.19;4970536;28;20063;-68
2021/05/16 02:13:35;;;;;;;3.60;0.70;;;;;;;7.72;82.68;94470.00;4970400;28;20073;-70
2021/05/16 02:16:00;;;;;;;1.85;0.63;;;;;;;7.69;82.89;94454.72;4979290;28;20480;-70
2021/05/16 02:18:26;;;;;;;2.80;0.50;;;;;;;7.36;83.60;94456.81;4985464;28;20042;-70
2021/05/16 02:20:51;;;;;;;0.50;0.30;;;;;;;7.60;83.00;94472.41;4972291;28;20026;-70
2021/05/16 02:23:17;;;;;;;1.17;0.32;;;;;;;7.51;83.54;94459.09;4988502;28;20045;-70
2021/05/16 02:25:43;;;;;;;1.25;0.55;;;;;;;7.39;83.96;94460.75;4975746;28;20050;-69
2021/05/16 02:28:08;;;;;;;2.58;0.70;;;;;;;7.35;83.33;94460.53;4969212;28;20066;-70
2021/05/16 02:30:34;;;;;;;2.95;0.65;;;;;;;7.60;82.06;94467.13;4970047;28;20514;-69
2021/05/16 02:33:00;;;;;;;2.05;0.50;;;;;;;7.46;82.75;94461.88;4970175;28;20034;-70
2021/05/16 02:35:25;;;;;;;1.77;0.68;;;;;;;7.55;82.41;94469.88;4990277;28;20019;-70
2021/05/16 02:37:51;;;;;;;2.47;0.60;;;;;;;7.50;82.24;94478.72;4973529;28;20063;-69
2021/05/16 02:40:16;;;;;;;1.08;0.55;;;;;;;7.56;81.36;94469.56;4980062;28;20038;-70
2021/05/16 02:42:42;;;;;;;1.52;0.50;;;;;;;7.48;82.02;94478.25;4988921;28;20034;-70
2021/05/16 02:45:08;;;;;;;1.05;0.40;;;;;;;7.58;81.55;94473.81;4989440;28;20098;-69
2021/05/16 02:47:34;;;;;;;0.88;0.63;;;;;;;7.51;81.86;94468.91;4991322;28;20018;-69
2021/05/16 02:50:00;;;;;;;3.75;0.57;;;;;;;7.59;81.10;94456.84;4972823;28;20114;-69
2021/05/16 02:52:25;;;;;;;1.30;0.40;;;;;;;7.48;80.85;94453.66;4979895;28;20054;-70
2021/05/16 02:54:50;;;;;;;2.65;0.60;;;;;;;7.46;81.07;94455.81;4982276;28;20038;-70
2021/05/16 02:57:16;;;;;;;2.33;0.50;;;;;;;7.11;81.75;94420.34;4970117;28;20473;-69
2021/05/16 02:59:41;;;;;;;1.40;0.45;;;;;;;7.41;82.13;94445.34;4971898;28;20042;-70
2021/05/16 03:02:07;;;;;;;1.70;0.82;;;;;;;7.49;80.92;94471.09;4969527;28;20480;-69
2021/05/16 03:04:32;;;;;;;1.85;0.57;;;;;;;7.67;80.68;94466.69;4997455;28;20056;-70
2021/05/16 03:06:58;;;;;;;3.20;0.60;;;;;;;7.69;80.38;94460.03;4981095;28;20035;-70
2021/05/16 03:09:24;;;;;;;2.95;0.70;;;;;;;7.70;80.36;94453.63;4969907;28;20086;-69
2021/05/16 03:11:49;;;;;;;1.25;0.60;;;;;;;7.81;79.92;94473.47;4971708;28;20113;-69
2021/05/16 03:14:16;;;;;;;1.52;0.32;;;;;;;7.74;81.12;94467.06;4969307;28;20518;-70
2021/05/16 03:16:41;;;;;;;2.92;0.73;;;;;;;7.78;80.09;94468.03;4969708;28;20027;-70
2021/05/16 03:19:06;;;;;;;3.72;0.70;;;;;;;7.71;80.12;94457.06;4969571;28;20109;-69
2021/05/16 03:21:32;;;;;;;1.85;0.90;;;;;;;7.92;80.55;94475.88;4974393;28;20038;-71
2021/05/16 03:23:57;;;;;;;5.20;0.60;;;;;;;7.83;79.89;94457.31;4990390;28;20373;-69
2021/05/16 03:26:23;;;;;;;3.15;0.88;;;;;;;7.86;79.97;94456.69;4989485;28;20397;-69
2021/05/16 03:28:49;;;;;;;1.73;0.70;;;;;;;8.03;80.11;94477.19;4988937;28;20035;-69
2021/05/16 03:31:14;;;;;;;2.40;0.85;;;;;;;8.02;79.77;94462.38;4991148;28;20089;-69
2021/05/16 03:33:40;;;;;;;2.75;0.60;;;;;;;8.13;80.02;94457.59;4992455;28;20125;-69
2021/05/16 03:36:05;;;;;;;2.53;0.68;;;;;;;8.34;79.76;94477.97;4991787;28;20022;-69
2021/05/16 03:38:31;;;;;;;1.38;0.65;;;;;;;8.52;79.48;94478.84;4975278;28;20027;-69
2021/05/16 03:40:56;;;;;;;1.15;0.68;;;;;;;8.71;78.80;94477.84;4989269;28;20054;-69
2021/05/16 03:43:22;;;;;;;2.65;0.80;;;;;;;8.77;78.33;94469.41;4992052;28;20042;-69
2021/05/16 03:45:48;;;;;;;3.67;0.70;;;;;;;8.82;78.49;94457.88;4991293;28;20042;-69
2021/05/16 03:48:13;;;;;;;3.22;0.70;;;;;;;8.96;78.31;94460.41;4990301;28;20033;-69
2021/05/16 03:50:39;;;;;;;2.45;0.98;;;;;;;9.17;77.93;94471.22;4974747;28;20158;-69
2021/05/16 03:53:04;;;;;;;2.67;0.98;;;;;;;9.20;77.51;94452.78;4990012;28;20424;-69
2021/05/16 03:55:30;;;;;;;2.25;0.70;;;;;;;9.33;76.79;94457.16;4980143;28;20027;-69
2021/05/16 03:57:56;;;;;;;4.60;0.82;;;;;;;9.43;76.00;94463.25;4979513;28;20400;-69
2021/05/16 04:00:22;;;;;;;3.83;0.70;;;;;;;9.68;76.04;94475.75;4989016;28;20130;-69
2021/05/16 04:02:47;;;;;;;3.30;0.95;;;;;;;9.81;75.87;94474.78;4974434;28;20469;-69
2021/05/16 04:05:14;;;;;;;2.83;0.60;;;;;;;9.98;75.29;94468.69;4989747;28;20038;-69
2021/05/16 04:07:40;;;;;;;2.85;0.70;;;;;;;10.06;74.94;94469.75;4992249;28;20042;-70
2021/05/16 04:10:07;;;;;;;1.35;0.60;;;;;;;10.18;74.13;94471.75;4982799;28;20147;-71
2021/05/16 04:12:32;;;;;;;2.75;0.75;;;;;;;10.21;73.46;94471.13;4976960;28;20073;-69
2021/05/16 04:14:58;;;;;;;4.00;1.10;;;;;;;10.18;73.06;94467.19;4992184;28;20027;-71
2021/05/16 04:17:24;;;;;;;4.63;0.77;;;;;;;10.12;73.11;94463.16;4993901;28;20049;-70
2021/05/16 04:19:49;;;;;;;5.13;0.95;;;;;;;10.08;72.53;94476.31;4976920;28;20035;-70
2021/05/16 04:22:15;;;;;;;4.50;0.80;;;;;;;10.07;72.92;94481.94;4970879;28;20043;-69
2021/05/16 04:24:40;;;;;;;3.30;1.00;;;;;;;9.92;73.49;94485.09;4978109;28;20049;-70
2021/05/16 04:27:06;;;;;;;3.17;0.77;;;;;;;9.82;73.18;94484.31;4991972;28;20031;-69
2021/05/16 04:29:32;;;;;;;3.28;0.93;;;;;;;9.75;73.80;94491.19;4993868;28;20033;-69
2021/05/16 04:31:57;;;;;;;2.95;0.90;;;;;;;9.69;74.43;94493.25;4992032;28;20114;-69
2021/05/16 04:34:23;;;;;;;3.78;0.95;;;;;;;9.67;74.57;94482.13;4991527;28;20035;-70
2021/05/16 04:36:48;;;;;;;4.13;1.25;;;;;;;9.78;75.31;94470.13;4991834;28;20215;-69
2021/05/16 04:39:14;;;;;;;5.00;0.77;;;;;;;10.03;74.24;94468.50;4991841;28;20042;-69
2021/05/16 04:41:39;;;;;;;3.00;0.80;;;;;;;10.33;73.56;94477.34;4991483;28;20033;-70
2021/05/16 04:44:05;;;;;;;2.80;0.88;;;;;;;10.71;73.91;94486.44;4974199;28;20035;-69
2021/05/16 04:46:30;;;;;;;3.33;1.23;;;;;;;10.96;72.18;94480.22;4985171;28;20039;-69
2021/05/16 04:48:56;;;;;;;2.75;0.85;;;;;;;11.33;71.05;94478.56;4991831;28;20066;-70
2021/05/16 04:51:21;;;;;;;3.67;1.13;;;;;;;11.65;69.89;94471.72;4991248;28;20065;-70
2021/05/16 04:53:46;;;;;;;2.67;0.80;;;;;;;12.12;68.88;94484.03;4993099;28;20102;-69
2021/05/16 04:56:12;;;;;;;2.95;1.00;;;;;;;12.34;67.06;94470.31;4973365;28;20034;-71
2021/05/16 04:58:37;;;;;;;3.22;0.70;;;;;;;12.58;65.94;94488.25;4985729;28;20050;-70
2021/05/16 05:01:05;;;;;;;2.67;0.70;;;;;;;12.60;65.58;94483.38;4982674;28;20392;-68
2021/05/16 05:03:32;;;;;;;3.42;0.90;;;;;;;12.71;65.03;94497.81;4976263;28;20073;-70
2021/05/16 05:05:57;;;;;;;3.30;0.98;;;;;;;12.71;65.35;94468.47;4990386;28;20086;-69
2021/05/16 05:08:27;;;;;;;4.65;1.48;;;;;;;12.89;65.41;94486.91;4993627;28;20443;-70
2021/05/16 05:10:53;;;;;;;6.75;0.95;;;;;;;12.91;64.04;94482.81;4991573;28;20576;-69
2021/05/16 05:13:19;;;;;;;3.13;0.90;;;;;;;13.00;64.53;94488.84;4991058;28;20125;-70
2021/05/16 05:15:45;;;;;;;3.88;1.13;;;;;;;12.98;63.57;94483.03;4991405;28;20130;-70
2021/05/16 05:18:10;;;;;;;2.63;1.08;;;;;;;12.98;64.01;94479.59;4989379;28;20484;-69
2021/05/16 05:20:36;;;;;;;3.03;0.70;;;;;;;13.01;63.59;94471.69;4973395;28;20730;-69
2021/05/16 05:23:01;;;;;;;3.33;0.60;;;;;;;13.15;62.91;94476.66;4971019;28;20035;-69
2021/05/16 05:25:30;;;;;;;2.25;1.00;;;;;;;13.23;62.58;94467.78;4983629;28;20042;-69
2021/05/16 05:27:56;;;;;;;2.70;0.70;;;;;;;13.46;62.79;94470.78;4990725;28;20561;-69
2021/05/16 05:30:23;;;;;;;4.57;1.08;;;;;;;13.60;62.59;94458.91;4990508;28;20045;-69
2021/05/16 05:32:49;;;;;;;3.88;0.95;;;;;;;13.70;61.93;94469.91;4992146;28;20026;-70
2021/05/16 05:35:14;;;;;;;3.53;0.80;;;;;;;13.84;61.64;94474.88;4972513;28;20118;-70
2021/05/16 05:37:40;;;;;;;3.08;0.80;;;;;;;13.84;61.28;94474.88;4971349;28;20042;-70
2021/05/16 05:40:06;;;;;;;4.85;0.88;;;;;;;13.81;61.02;94475.53;4971027;28;20074;-69
2021/05/16 05:42:31;;;;;;;3.50;0.88;;;;;;;13.63;61.33;94456.34;4973879;28;20172;-69
2021/05/16 05:44:57;;;;;;;3.55;0.90;;;;;;;13.61;61.11;94466.59;4990873;28;20121;-66
2021/05/16 05:47:22;;;;;;;1.40;0.80;;;;;;;13.59;61.39;94470.72;4991274;28;20369;-69
2021/05/16 05:49:47;;;;;;;4.97;1.20;;;;;;;13.62;61.63;94476.19;4990281;28;20277;-70
2021/05/16 05:52:13;;;;;;;3.67;1.08;;;;;;;13.45;61.48;94453.16;4978144;28;20050;-70
2021/05/16 05:54:38;;;;;;;4.95;0.98;;;;;;;13.70;61.24;94477.13;4970926;28;20066;-70
2021/05/16 05:57:05;;;;;;;3.97;1.10;;;;;;;13.81;60.57;94486.22;4971843;28;20053;-70
2021/05/16 05:59:31;;;;;;;4.80;1.45;;;;;;;13.92;60.22;94481.19;4992176;28;20030;-69
2021/05/16 06:01:57;;;;;;;9.40;1.38;;;;;;;14.09;59.81;94485.47;4990167;28;20031;-71
2021/05/16 06:04:23;;;;;;;3.10;1.00;;;;;;;14.32;59.64;94484.53;4978306;28;20119;-69
2021/05/16 06:06:48;;;;;;;4.28;1.00;;;;;;;14.64;58.80;94471.25;4970639;28;20043;-69
2021/05/16 06:09:14;;;;;;;4.60;1.30;;;;;;;14.72;56.68;94472.94;5004457;28;20476;-70
2021/05/16 06:11:39;;;;;;;4.05;1.05;;;;;;;14.85;56.85;94470.19;4991816;28;20026;-70
2021/05/16 06:14:04;;;;;;;3.85;1.08;;;;;;;15.12;56.37;94480.00;4972582;28;20134;-69
2021/05/16 06:16:30;;;;;;;2.97;1.00;;;;;;;14.38;55.23;94466.34;4982958;28;20088;-68
2021/05/16 06:18:57;;;;;;;4.80;1.30;;;;;;;13.87;57.29;94476.06;4982373;28;20126;-69
2021/05/16 06:21:23;;;;;;;2.95;1.20;;;;;;;13.87;58.08;94474.19;4973912;28;20043;-69
2021/05/16 06:24:03;;;;;;;5.20;1.10;;;;;;;13.39;59.20;94481.22;4991141;28;20546;-69
2021/05/16 06:26:36;;;;;;;6.15;1.20;;;;;;;12.22;61.76;94496.94;4990469;28;20038;-69
2021/05/16 06:29:02;;;;;;;4.40;1.25;;;;;;;13.42;60.46;94485.91;4973170;28;20039;-69
2021/05/16 06:31:28;;;;;;;5.75;1.30;;;;;;;13.58;57.69;94490.56;4982510;28;20054;-69
2021/05/16 06:33:53;;;;;;;3.30;1.00;;;;;;;13.99;58.96;94479.47;4989326;28;20089;-70
2021/05/16 06:36:19;;;;;;;4.35;1.13;;;;;;;12.13;60.64;94496.25;4986716;28;20054;-69
2021/05/16 06:38:44;;;;;;;5.10;1.20;;;;;;;13.21;58.77;94479.91;4972277;28;20118;-69
2021/05/16 06:41:10;;;;;;;4.32;1.20;;;;;;;13.38;58.44;94493.03;4986595;28;20042;-70
2021/05/16 06:43:35;;;;;;;5.32;1.33;;;;;;;13.90;56.98;94496.78;4989169;28;20125;-70
2021/05/16 06:46:01;;;;;;;3.25;1.30;;;;;;;14.31;55.85;94488.34;4981100;28;20066;-69
2021/05/16 06:48:26;;;;;;;4.93;0.90;;;;;;;13.08;57.98;94483.69;4973952;28;20038;-69
2021/05/16 06:50:53;;;;;;;5.25;1.20;;;;;;;12.97;57.07;94491.38;4990041;28;20022;-70
2021/05/16 06:53:19;;;;;;;4.82;1.23;;;;;;;12.78;58.57;94499.16;4970102;28;20035;-69
2021/05/16 06:55:44;;;;;;;1.63;0.80;;;;;;;13.01;58.62;94495.72;4984503;28;20037;-70
2021/05/16 06:58:10;;;;;;;3.00;0.80;;;;;;;13.27;56.51;94495.38;4989618;28;20449;-70
2021/05/16 07:00:35;;;;;;;5.32;1.27;;;;;;;13.52;56.06;94488.13;4984471;28;20039;-69
2021/05/16 07:03:00;;;;;;;5.43;0.98;;;;;;;13.05;57.64;94492.38;4970421;28;20077;-68
2021/05/16 07:05:26;;;;;;;5.55;0.90;;;;;;;13.98;55.90;94479.84;4991065;28;20030;-74
2021/05/16 07:07:51;;;;;;;3.97;1.00;;;;;;;13.85;54.98;94483.66;4989593;28;20048;-73
2021/05/16 07:10:16;;;;;;;3.30;1.17;;;;;;;12.87;58.45;94503.28;4989474;28;20049;-72
2021/05/16 07:12:42;;;;;;;4.03;1.15;;;;;;;12.73;58.53;94487.59;4989110;28;20050;-68
2021/05/16 07:15:11;;;;;;;4.47;1.02;;;;;;;13.38;56.48;94487.69;4987000;28;20379;-70
2021/05/16 07:17:37;;;;;;;3.47;1.10;;;;;;;14.20;55.19;94489.19;4971933;28;20030;-69
2021/05/16 07:20:03;;;;;;;3.55;1.10;;;;;;;14.47;54.20;94479.56;4986578;28;20097;-75
2021/05/16 07:22:29;;;;;;;3.88;1.20;;;;;;;14.39;53.94;94480.53;5003936;28;20101;-73
2021/05/16 07:24:54;;;;;;;6.10;1.50;;;;;;;14.74;52.73;94468.03;4980682;28;20047;-73
2021/05/16 07:27:20;;;;;;;4.38;1.40;;;;;;;14.12;53.83;94474.06;4973871;28;20050;-79
2021/05/16 07:29:45;;;;;;;5.60;1.38;;;;;;;13.42;55.52;94461.88;4991953;28;20070;-77
2021/05/16 07:32:10;;;;;;;5.35;1.17;;;;;;;13.35;55.99;94469.66;4986327;28;20497;-85
2021/05/16 07:34:36;;;;;;;4.80;1.40;;;;;;;13.41;56.10;94468.34;4982162;28;20073;-73
2021/05/16 07:37:02;;;;;;;3.17;1.00;;;;;;;13.30;56.67;94485.91;4980891;28;20039;-72
2021/05/16 07:39:27;;;;;;;5.40;1.40;;;;;;;13.63;54.19;94468.94;4973739;28;20354;-72
2021/05/16 07:41:53;;;;;;;2.53;1.10;;;;;;;13.56;55.43;94480.19;4990651;28;20022;-74
2021/05/16 07:44:18;;;;;;;5.80;1.50;;;;;;;13.69;54.28;94475.59;4968205;28;20488;-73
2021/05/16 07:46:44;;;;;;;3.28;0.98;;;;;;;13.79;53.79;94480.47;4967788;28;20138;-71
2021/05/16 07:49:09;;;;;;;4.13;1.38;;;;;;;14.22;53.06;94471.66;5000830;28;20415;-74
2021/05/16 07:51:34;;;;;;;5.32;1.17;;;;;;;15.03;52.28;94460.66;4969354;28;20063;-73
2021/05/16 07:54:00;;;;;;;3.78;0.93;;;;;;;15.34;50.39;94465.16;4969491;28;20476;-73
2021/05/16 07:56:25;;;;;;;2.70;1.08;;;;;;;14.94;51.03;94468.88;4991039;28;20030;-74
2021/05/16 07:58:51;;;;;;;2.78;1.20;;;;;;;14.54;50.85;94471.75;4988869;28;20126;-73
2021/05/16 08:01:16;;;;;;;9.02;0.95;;;;;;;13.98;52.35;94453.09;4988769;28;20381;-71
2021/05/16 08:03:42;;;;;;;2.83;1.00;;;;;;;15.44;48.03;94451.22;4982496;28;20054;-74
2021/05/16 08:06:07;;;;;;;4.22;1.20;;;;;;;15.45;48.89;94462.72;4970401;28;20027;-67
2021/05/16 08:08:33;;;;;;;7.43;1.63;;;;;;;15.49;48.62;94450.94;4995741;28;20472;-67
2021/05/16 08:10:58;;;;;;;3.92;1.35;;;;;;;14.83;50.38;94451.78;4993923;28;20161;-67
2021/05/16 08:13:23;;;;;;;2.80;0.85;;;;;;;14.79;51.23;94432.97;4993014;28;20046;-69
2021/05/16 08:15:49;;;;;;;3.60;1.08;;;;;;;14.02;51.50;94470.78;4988663;28;20070;-70
2021/05/16 08:18:14;;;;;;;2.40;0.80;;;;;;;14.23;51.15;94459.88;4992516;28;20427;-74
2021/05/16 08:20:40;;;;;;;3.25;1.02;;;;;;;14.39;51.36;94448.41;4992996;28;20054;-71
2021/05/16 08:23:05;;;;;;;2.30;0.73;;;;;;;14.17;50.35;94461.22;4990340;28;20361;-67
2021/05/16 08:25:33;;;;;;;4.60;1.00;;;;;;;14.26;50.40;94463.75;4992026;28;20065;-70
2021/05/16 08:27:59;;;;;;;4.18;0.85;;;;;;;14.23;50.47;94481.28;4992266;28;20066;-66
2021/05/16 08:30:24;;;;;;;5.22;1.00;;;;;;;13.92;50.59;94465.94;4990626;28;20096;-67
2021/05/16 08:32:50;;;;;;;3.28;1.05;;;;;;;14.37;50.17;94464.78;4993383;28;20049;-71
2021/05/16 08:35:15;;;;;;;2.30;0.68;;;;;;;13.89;49.63;94453.25;4990437;28;20404;-67
2021/05/16 08:37:41;;;;;;;3.10;0.82;;;;;;;14.01;49.49;94471.88;4992104;28;20049;-67
2021/05/16 08:40:08;;;;;;;1.60;0.47;;;;;;;14.35;48.73;94461.69;4991694;28;20132;-71
2021/05/16 08:42:33;;;;;;;3.13;0.77;;;;;;;14.88;47.33;94462.22;4991339;28;20084;-70
2021/05/16 08:44:59;;;;;;;3.03;0.85;;;;;;;14.55;48.24;94465.28;4991535;28;20054;-67
2021/05/16 08:47:25;;;;;;;2.20;0.55;;;;;;;14.76;48.02;94459.66;4993596;28;20037;-66
2021/05/16 08:49:50;;;;;;;3.28;1.10;;;;;;;14.63;48.73;94472.34;4990229;28;20113;-68
2021/05/16 08:52:16;;;;;;;2.65;1.13;;;;;;;14.25;49.04;94475.56;4991229;28;20074;-67
2021/05/16 08:54:44;;;;;;;3.30;1.20;;;;;;;14.33;48.69;94463.94;4991543;28;20097;-70
2021/05/16 08:57:10;;;;;;;4.53;1.02;;;;;;;14.45;48.80;94474.56;4991710;28;20030;-70
2021/05/16 08:59:35;;;;;;;5.70;0.90;;;;;;;15.11;47.92;94475.78;4992193;28;20066;-68
2021/05/16 09:02:01;;;;;;;3.53;1.02;;;;;;;15.37;47.04;94453.75;4991497;28;20052;-78
2021/05/16 09:04:34;;;;;;;3.42;0.80;;;;;;;15.51;47.49;94472.84;4992161;28;20431;-67
2021/05/16 09:07:00;;;;;;;2.72;1.00;;;;;;;17.22;43.34;94452.88;4991652;28;20538;-66
2021/05/16 09:09:36;;;;;;;3.03;1.05;;;;;;;16.45;45.28;94464.69;4991450;28;20129;-73
2021/05/16 09:12:04;;;;;;;4.00;1.20;;;;;;;16.70;44.59;94465.88;4990303;28;20053;-71
2021/05/16 09:14:43;;;;;;;3.28;0.93;;;;;;;16.99;43.67;94467.13;4991781;28;20064;-70
2021/05/16 09:17:34;;;;;;;3.70;0.90;;;;;;;16.10;43.66;94465.59;4991111;28;20054;-70
2021/05/16 09:20:08;;;;;;;3.33;1.20;;;;;;;16.70;43.28;94467.78;4991070;28;20049;-69
2021/05/16 09:22:42;;;;;;;3.60;1.17;;;;;;;16.85;43.08;94462.31;4990701;28;20096;-71
2021/05/16 09:25:22;;;;;;;2.78;0.82;;;;;;;16.45;44.17;94462.00;4990946;28;20053;-74
2021/05/16 09:27:50;;;;;;;2.08;0.90;;;;;;;15.75;44.24;94465.66;4990811;28;20035;-71
2021/05/16 09:30:19;;;;;;;2.20;0.75;;;;;;;15.82;44.14;94457.78;4991048;28;20037;-69
2021/05/16 09:33:08;;;;;;;2.85;1.10;;;;;;;16.35;43.13;94458.00;4992461;28;20030;-74
2021/05/16 09:35:38;;;;;;;3.50;1.00;;;;;;;16.06;43.11;94454.78;4991443;28;20093;-70
2021/05/16 09:38:15;;;;;;;3.05;1.08;;;;;;;16.42;43.01;94447.38;4990831;28;20488;-68
2021/05/16 09:40:46;;;;;;;2.53;0.80;;;;;;;15.85;43.75;94443.66;4989491;28;20034;-73
2021/05/16 09:43:31;;;;;;;3.40;1.02;;;;;;;16.73;42.00;94448.28;4990644;28;20078;-73
2021/05/16 09:46:01;;;;;;;2.75;0.77;;;;;;;15.86;43.08;94456.69;4990691;28;20050;-73
2021/05/16 09:48:31;;;;;;;2.25;0.82;;;;;;;16.10;50.05;94454.84;4991073;28;20045;-74
2021/05/16 09:51:10;;;;;;;3.55;1.10;;;;;;;16.69;44.09;94463.56;4992642;28;20022;-76
2021/05/16 09:53:52;;;;;;;2.38;0.88;;;;;;;16.20;45.34;94451.59;4991797;28;20069;-78
2021/05/16 09:56:21;;;;;;;2.72;0.88;;;;;;;16.04;44.69;94449.00;4991593;28;20092;-74
2021/05/16 09:58:48;;;;;;;2.05;0.88;;;;;;;15.55;44.77;94430.00;4989476;28;20042;-68
2021/05/16 10:01:14;;;;;;;3.65;0.90;;;;;;;15.23;46.38;94432.03;4990376;28;20045;-70
2021/05/16 10:03:40;;;;;;;3.42;1.38;;;;;;;14.76;47.41;94438.25;4990304;28;20061;-70
2021/05/16 10:06:06;;;;;;;3.08;1.25;;;;;;;14.60;46.01;94437.47;4989316;28;20484;-70
2021/05/16 10:08:32;;;;;;;3.88;1.20;;;;;;;14.86;47.00;94432.38;4992869;28;20112;-72
2021/05/16 10:10:57;;;;;;;4.75;1.20;;;;;;;14.99;45.51;94431.13;4989533;28;20066;-77
2021/05/16 10:13:26;;;;;;;3.75;0.98;;;;;;;15.28;44.89;94413.00;4989866;28;20042;-74
2021/05/16 10:15:54;;;;;;;2.75;1.02;;;;;;;14.92;45.80;94422.94;4990364;28;20041;-72
2021/05/16 10:18:21;;;;;;;2.97;0.70;;;;;;;15.20;45.87;94416.63;4989390;28;20042;-74
2021/05/16 10:20:47;;;;;;;2.17;1.00;;;;;;;16.51;42.44;94417.59;4992113;28;20035;-72
2021/05/16 10:23:12;;;;;;;4.25;0.80;;;;;;;17.18;41.32;94409.81;4989545;28;20042;-75
2021/05/16 10:25:38;;;;;;;2.17;0.80;;;;;;;17.91;41.29;94392.31;4989761;28;20145;-74
2021/05/16 10:28:04;;;;;;;2.72;1.10;;;;;;;18.41;39.40;94386.63;4988833;28;20038;-74
2021/05/16 10:30:30;;;;;;;4.20;1.20;;;;;;;18.16;39.37;94384.47;4988941;28;20109;-73
2021/05/16 10:32:55;;;;;;;3.95;0.75;;;;;;;18.79;37.87;94384.66;4991686;28;20033;-74
2021/05/16 10:35:21;;;;;;;4.85;1.13;;;;;;;19.61;37.41;94385.91;4988955;28;20046;-75
2021/05/16 10:37:51;;;;;;;2.88;0.88;;;;;;;17.80;37.80;94396.00;4986196;28;20034;-76
2021/05/16 10:40:19;;;;;;;2.50;1.05;;;;;;;17.63;38.87;94391.97;4980854;28;20049;-73
2021/05/16 10:42:45;;;;;;;3.08;0.65;;;;;;;17.05;39.72;94387.00;4988622;28;20104;-74
2021/05/16 10:45:21;;;;;;;3.58;0.85;;;;;;;17.34;39.81;94372.00;4988845;28;20483;-75
2021/05/16 10:47:52;;;;;;;2.20;0.90;;;;;;;19.16;37.82;94390.66;4992108;28;20023;-80
2021/05/16 10:50:23;;;;;;;3.25;1.10;;;;;;;19.84;34.79;94374.03;4990350;28;20042;-71
2021/05/16 10:52:58;;;;;;;2.83;0.95;;;;;;;20.73;34.32;94383.06;4975247;28;20042;-73
2021/05/16 10:55:30;;;;;;;1.42;0.80;;;;;;;20.30;33.52;94365.25;4982064;28;20105;-73
2021/05/16 10:57:55;;;;;;;1.58;0.80;;;;;;;21.39;33.74;94362.84;4989901;28;20603;-74
2021/05/16 11:00:21;;;;;;;2.80;0.98;;;;;;;19.79;33.82;94350.88;4988661;28;20042;-73
2021/05/16 11:03:07;;;;;;;2.08;0.88;;;;;;;19.09;36.16;94352.09;4991322;28;20030;-73
2021/05/16 11:08:16;;;;;;;2.13;0.88;;;;;;;19.95;33.90;94345.91;4989750;28;20034;-74
2021/05/16 11:10:43;;;;;;;2.97;1.08;;;;;;;19.16;34.49;94344.84;4989477;28;20040;-74
2021/05/16 11:13:13;;;;;;;2.45;1.17;;;;;;;20.10;33.59;94344.00;4988162;28;20039;-73
2021/05/16 11:16:06;;;;;;;2.60;0.90;;;;;;;19.42;33.46;94335.69;4989864;28;20141;-74
2021/05/16 11:18:33;;;;;;;1.42;0.60;;;;;;;19.14;33.79;94335.56;4989707;28;20554;-74
2021/05/16 11:21:05;;;;;;;4.00;0.85;;;;;;;17.24;37.09;94318.91;4989259;28;20089;-72
2021/05/16 11:23:39;;;;;;;1.85;0.90;;;;;;;18.72;35.76;94330.72;4991293;28;20061;-72
2021/05/16 11:26:13;;;;;;;1.38;0.60;;;;;;;18.39;35.58;94324.31;4987974;28;20038;-73
2021/05/16 11:28:44;;;;;;;3.08;0.95;;;;;;;19.78;33.86;94325.06;4980482;28;20050;-72
2021/05/16 11:31:17;;;;;;;1.83;0.80;;;;;;;19.31;32.11;94326.81;4989434;28;20077;-73
2021/05/16 11:33:47;;;;;;;3.08;0.75;;;;;;;18.42;33.61;94327.00;4987692;28;20042;-73
2021/05/16 11:36:16;;;;;;;2.00;0.70;;;;;;;17.04;35.88;94329.78;4988240;28;20100;-74
2021/05/16 11:38:49;;;;;;;1.02;0.45;;;;;;;16.64;37.23;94323.09;4989678;28;20029;-74